• Join FlightAware (Why Join?)
  • Login
  • US Flag 
02:58AM EDT


 

Airport Tracker/Info


-or-


 

Live Flight TrackerFlight Track Log ✈ UAL252 ✈ 29-Apr-2013 ✈ KSNA - KDEN

Flight Track Log - Related Links

Times and Time Zones

All times are in EDT time to prevent confusion due to time zone crossing. See the UAL252 flight status page for this flight to view local times or setup timezone preferences in your user account.

Time Position Orientation Groundspeed Altitude Reporting Facility
EDT Latitude Longitude Course Direction KTS MPH feet Rate Location/Type
07:05PM 33.6333 -117.8833 204° Southwest 135 155 2,200  Level Southern California TRACON
07:06PM 33.6181 -117.8917 204° Southwest 125 144 3,100 1,140 Climbing Los Angeles Center
07:07PM 33.5594 -117.8900 179° South 190 219 4,300 1,620 Climbing Los Angeles Center
07:08PM 33.5586 -117.8033 91° East 269 310 6,500 2,580 Climbing Los Angeles Center
07:09PM 33.5669 -117.7061 84° East 290 334 9,700 2,100 Climbing Los Angeles Center
07:10PM 33.5736 -117.5972 86° East 323 372 10,900 1,200 Climbing Los Angeles Center
07:11PM 33.5844 -117.4581 85° East 399 459 12,300 1,980 Climbing Los Angeles Center
07:12PM 33.5597 -117.3261 103° East 440 506 15,400 2,400 Climbing Los Angeles Center
07:14PM 33.5833 -117.1255 90° East  Level FlightAware Approximate
07:14PM 33.5764 -116.9956 90° East 449 517 20,300  Level Los Angeles Center
07:15PM 33.6278 -116.8669 64° Northeast 456 525 21,400 1,320 Climbing Los Angeles Center
07:16PM 33.6889 -116.7178 64° Northeast 467 537 23,100 1,380 Climbing Los Angeles Center
07:17PM 33.7511 -116.5772 62° Northeast 474 545 24,300 1,020 Climbing Los Angeles Center
07:18PM 33.8186 -116.4367 60° Northeast 483 556 25,300 1,200 Climbing Los Angeles Center
07:19PM 33.8853 -116.2964 60° Northeast 482 555 26,900 1,380 Climbing Los Angeles Center
07:20PM 33.9503 -116.1589 60° Northeast 474 545 28,200 1,500 Climbing Los Angeles Center
07:21PM 34.0283 -115.9958 60° Northeast 467 537 30,000 1,500 Climbing Los Angeles Center
07:22PM 34.0919 -115.8608 60° Northeast 464 534 31,300 1,080 Climbing Los Angeles Center
07:23PM 34.1556 -115.7247 61° Northeast 465 535 32,300 1,200 Climbing Los Angeles Center
07:24PM 34.2189 -115.5883 61° Northeast 466 536 33,800 1,380 Climbing Los Angeles Center
07:25PM 34.2811 -115.4575 60° Northeast 451 519 35,200 1,200 Climbing Los Angeles Center
07:26PM 34.3417 -115.3272 61° Northeast 447 514 36,300 780 Climbing Los Angeles Center
07:28PM 34.4142 -115.1700 61° Northeast 446 513 36,900 240 Climbing Los Angeles Center
07:29PM 34.4742 -115.0389 61° Northeast 447 514 36,900  Level Los Angeles Center
07:30PM 34.5342 -114.9094 61° Northeast 441 507 36,900  Level Los Angeles Center
07:31PM 34.5953 -114.7797 60° Northeast 442 509 37,000  Climbing Los Angeles Center
07:32PM 34.6614 -114.6328 61° Northeast 449 517 37,000  Level Los Angeles Center
07:33PM 34.7214 -114.5006 61° Northeast 449 517 37,000  Level Los Angeles Center
07:34PM 34.7692 -114.3956 61° Northeast 445 512 37,000  Level Los Angeles Center
07:35PM 34.8531 -114.2111 61° Northeast 444 511 37,000  Level Los Angeles Center
07:36PM 34.8994 -114.1058 62° Northeast 443 510 37,000  Level Los Angeles Center
07:37PM 34.9822 -113.9211 61° Northeast 443 510 37,000  Level Los Angeles Center
07:38PM 35.0325 -113.8103 61° Northeast 447 514 37,000  Level Los Angeles Center
07:39PM 35.1031 -113.6508 62° Northeast 447 514 37,000  Level Los Angeles Center
07:40PM 35.1617 -113.5189 61° Northeast 445 512 37,000  Level Los Angeles Center
07:41PM 35.2200 -113.3869 62° Northeast 444 511 37,000  Level Los Angeles Center
07:42PM 35.2769 -113.2578 62° Northeast 442 509 37,000  Level Los Angeles Center
07:43PM 35.3333 -113.1258 62° Northeast 440 506 37,000  Level Los Angeles Center
07:44PM 35.4050 -112.9656 61° Northeast 446 513 37,000  Level Los Angeles Center
07:45PM 35.4633 -112.8286 62° Northeast 443 510 37,000  Level Los Angeles Center
07:46PM 35.5200 -112.6969 62° Northeast 439 505 37,000  Level Los Angeles Center
07:47PM 35.5800 -112.5556 62° Northeast 438 504 37,000  Level Los Angeles Center
07:48PM 35.6361 -112.4231 62° Northeast 440 506 37,000  Level Los Angeles Center
07:49PM 35.6939 -112.2894 62° Northeast 443 510 37,000  Level Los Angeles Center
07:50PM 35.7511 -112.1550 62° Northeast 444 511 37,000  Level Los Angeles Center
07:51PM 35.8072 -112.0219 62° Northeast 442 509 37,000  Level Los Angeles Center
07:53PM 35.8625 -111.8897 63° Northeast 438 504 37,000  Level Los Angeles Center
07:53PM 35.8928 -111.8189 62° Northeast 438 504 37,000  Level Denver Center
07:54PM 35.9592 -111.6592 63° Northeast 437 503 37,000  Level Denver Center
07:55PM 36.0147 -111.5261 63° Northeast 438 504 37,000  Level Denver Center
07:56PM 36.0592 -111.4189 63° Northeast 438 504 37,000  Level Denver Center
07:57PM 36.1294 -111.2606 61° Northeast 438 504 37,000  Level Denver Center
07:58PM 36.1936 -111.1311 58° Northeast 442 509 37,000  Level Denver Center
07:59PM 36.2556 -111.0028 59° Northeast 438 504 37,000  Level Denver Center
08:00PM 36.3408 -110.8236 59° Northeast 434 499 37,000  Level Denver Center
08:01PM 36.4028 -110.6953 59° Northeast 434 499 37,000  Level Denver Center
08:02PM 36.4642 -110.5647 60° Northeast 437 503 37,000  Level Denver Center
08:04PM 36.5239 -110.4361 60° Northeast 435 501 37,000  Level Denver Center
08:05PM 36.5858 -110.3072 59° Northeast 434 499 37,000  Level Denver Center
08:06PM 36.6461 -110.1778 60° Northeast 432 497 37,000  Level Denver Center
08:07PM 36.7108 -110.0403 60° Northeast 437 503 37,000  Level Denver Center
08:08PM 36.7786 -109.8944 60° Northeast 434 499 37,000  Level Denver Center
08:09PM 36.8372 -109.7683 60° Northeast 436 502 37,000  Level Denver Center
08:10PM 36.9053 -109.6194 60° Northeast 439 505 37,000  Level Denver Center
08:11PM 36.9747 -109.4711 60° Northeast 441 507 37,000  Level Denver Center
08:12PM 37.0425 -109.3219 60° Northeast 441 507 37,000  Level Denver Center
08:13PM 37.1008 -109.1942 60° Northeast 439 505 37,000  Level Denver Center
08:14PM 37.1681 -109.0453 60° Northeast 438 504 37,000  Level Denver Center
08:15PM 37.2261 -108.9169 60° Northeast 438 504 37,000  Level Denver Center
08:16PM 37.2944 -108.7658 60° Northeast 444 511 37,000  Level Denver Center
08:17PM 37.3525 -108.6358 61° Northeast 444 511 37,000  Level Denver Center
08:18PM 37.4111 -108.5061 60° Northeast 444 511 37,000 -60 Level Denver Center
08:19PM 37.4772 -108.3528 61° Northeast 446 513 36,900  Descending Denver Center
08:20PM 37.5333 -108.2247 61° Northeast 439 505 37,000  Climbing Denver Center
08:21PM 37.5983 -108.0781 61° Northeast 433 498 37,000  Level Denver Center
08:22PM 37.6556 -107.9500 61° Northeast 435 501 37,000  Level Denver Center
08:23PM 37.7214 -107.7986 61° Northeast 439 505 37,000  Level Denver Center
08:24PM 37.7769 -107.6692 61° Northeast 438 504 37,000 -60 Level Denver Center
08:25PM 37.8331 -107.5400 61° Northeast 438 504 36,900 -60 Descending Denver Center
08:26PM 37.8972 -107.3903 61° Northeast 432 497 36,900  Level Denver Center
08:27PM 37.9528 -107.2611 61° Northeast 436 502 37,000 -480 Climbing Denver Center
08:28PM 38.0142 -107.1178 61° Northeast 437 503 36,000 -1,020 Descending Denver Center
08:29PM 38.0794 -106.9650 61° Northeast 443 510 34,900 -1,020 Descending Denver Center
08:31PM 38.1347 -106.8325 62° Northeast 444 511 34,000 -960 Descending Denver Center
08:32PM 38.1919 -106.6994 61° Northeast 449 517 33,000 -960 Descending Denver Center
08:33PM 38.2589 -106.5719 56° Northeast 455 524 32,100 -1,020 Descending Denver Center
08:34PM 38.3564 -106.4456 45° Northeast 454 522 31,000 -540 Descending Denver Center
08:35PM 38.4481 -106.3303 45° Northeast 461 531 31,000 -300 Level Denver Center
08:36PM 38.5394 -106.2158 44° Northeast 462 532 30,400 -840 Descending Denver Center
08:37PM 38.6389 -106.0906 45° Northeast 453 521 29,300 -1,020 Descending Denver Center
08:38PM 38.7278 -105.9792 44° Northeast 445 512 28,300 -1,020 Descending Denver Center
08:39PM 38.8153 -105.8686 45° Northeast 439 505 27,300 -1,380 Descending Denver Center
08:40PM 38.9103 -105.7481 45° Northeast 438 504 25,500 -1,680 Descending Denver Center
08:41PM 38.9906 -105.6461 45° Northeast 426 490 23,900 -1,980 Descending Denver Center
08:42PM 39.0814 -105.5308 45° Northeast 412 474 21,500 -2,040 Descending Denver Center
08:43PM 39.1558 -105.4358 45° Northeast 389 448 19,800 -1,500 Descending Denver Center
08:44PM 39.2328 -105.3378 45° Northeast 362 417 18,400 -1,080 Descending Denver Center
08:45PM 39.2711 -105.2297 65° Northeast 336 387 17,700 -1,020 Descending Denver Center
08:46PM 39.2936 -105.1167 76° East 306 352 16,400 -1,080 Descending Denver Center
08:47PM 39.3125 -105.0131 77° East 299 344 15,500 -1,200 Descending Denver Center
08:48PM 39.3303 -104.9167 77° East 279 321 14,000 -1,080 Descending Denver Center
08:49PM 39.3586 -104.8119 71° East 289 333 13,300 -960 Descending Denver Center
08:50PM 39.4083 -104.7367 49° Northeast 277 319 12,100 -1,080 Descending Denver Center
08:51PM 39.4731 -104.6794 34° Northeast 266 306 11,200 -780 Descending Denver Center
08:52PM 39.5428 -104.6619 11° North 255 293 10,600 -540 Descending Denver Center
08:53PM 39.6128 -104.6633 359° North 253 291 10,200 -1,020 Descending Denver Center
08:54PM 39.6733 -104.6631 360° North 208 239 8,600 -1,560 Descending Denver Center